sensor_id;sensor_type;location;lat;lon;timestamp;P1;durP1;ratioP1;P2;durP2;ratioP2
20533;SDS011;12929;56.822;26.056;2024-03-23T00:54:02;13.90;;;7.75;;
20533;SDS011;12929;56.822;26.056;2024-03-23T00:56:29;17.23;;;8.02;;
20533;SDS011;12929;56.822;26.056;2024-03-23T00:58:55;16.95;;;7.97;;
20533;SDS011;12929;56.822;26.056;2024-03-23T01:01:22;14.40;;;6.78;;
20533;SDS011;12929;56.822;26.056;2024-03-23T01:03:48;18.15;;;7.53;;
20533;SDS011;12929;56.822;26.056;2024-03-23T01:06:15;17.80;;;7.57;;
20533;SDS011;12929;56.822;26.056;2024-03-23T01:08:41;17.23;;;7.10;;
20533;SDS011;12929;56.822;26.056;2024-03-23T01:11:08;13.60;;;6.80;;
20533;SDS011;12929;56.822;26.056;2024-03-23T01:13:34;18.75;;;8.68;;
20533;SDS011;12929;56.822;26.056;2024-03-23T01:16:00;17.13;;;8.15;;
20533;SDS011;12929;56.822;26.056;2024-03-23T01:18:27;13.05;;;6.25;;
20533;SDS011;12929;56.822;26.056;2024-03-23T01:20:54;16.25;;;6.72;;
20533;SDS011;12929;56.822;26.056;2024-03-23T01:23:21;12.23;;;6.38;;
20533;SDS011;12929;56.822;26.056;2024-03-23T01:25:53;15.30;;;5.93;;
20533;SDS011;12929;56.822;26.056;2024-03-23T01:28:20;10.63;;;5.60;;
20533;SDS011;12929;56.822;26.056;2024-03-23T01:30:47;10.55;;;4.72;;
20533;SDS011;12929;56.822;26.056;2024-03-23T01:33:14;14.52;;;6.07;;
20533;SDS011;12929;56.822;26.056;2024-03-23T01:35:41;10.82;;;4.85;;
20533;SDS011;12929;56.822;26.056;2024-03-23T01:38:08;12.32;;;6.03;;
20533;SDS011;12929;56.822;26.056;2024-03-23T01:40:34;12.35;;;5.20;;
20533;SDS011;12929;56.822;26.056;2024-03-23T01:43:04;14.65;;;6.03;;
20533;SDS011;12929;56.822;26.056;2024-03-23T01:45:34;13.68;;;6.18;;
20533;SDS011;12929;56.822;26.056;2024-03-23T01:48:01;12.32;;;4.78;;
20533;SDS011;12929;56.822;26.056;2024-03-23T01:50:28;16.42;;;5.50;;
20533;SDS011;12929;56.822;26.056;2024-03-23T01:53:00;12.00;;;5.97;;
20533;SDS011;12929;56.822;26.056;2024-03-23T01:55:28;12.27;;;6.50;;
20533;SDS011;12929;56.822;26.056;2024-03-23T01:57:56;13.85;;;5.43;;
20533;SDS011;12929;56.822;26.056;2024-03-23T02:00:23;16.02;;;7.68;;
20533;SDS011;12929;56.822;26.056;2024-03-23T02:02:49;17.67;;;6.70;;
20533;SDS011;12929;56.822;26.056;2024-03-23T02:05:16;15.88;;;7.38;;
20533;SDS011;12929;56.822;26.056;2024-03-23T02:07:43;17.73;;;7.28;;
20533;SDS011;12929;56.822;26.056;2024-03-23T02:10:10;17.23;;;6.63;;
20533;SDS011;12929;56.822;26.056;2024-03-23T02:12:38;16.50;;;6.40;;
20533;SDS011;12929;56.822;26.056;2024-03-23T02:15:05;19.20;;;6.53;;
20533;SDS011;12929;56.822;26.056;2024-03-23T02:17:33;17.42;;;6.72;;
20533;SDS011;12929;56.822;26.056;2024-03-23T02:20:00;20.90;;;6.57;;
20533;SDS011;12929;56.822;26.056;2024-03-23T02:22:36;16.48;;;6.43;;
20533;SDS011;12929;56.822;26.056;2024-03-23T02:25:04;21.80;;;6.57;;
20533;SDS011;12929;56.822;26.056;2024-03-23T02:27:31;15.40;;;5.72;;
20533;SDS011;12929;56.822;26.056;2024-03-23T02:29:59;17.00;;;6.22;;
20533;SDS011;12929;56.822;26.056;2024-03-23T02:32:25;19.33;;;6.65;;
20533;SDS011;12929;56.822;26.056;2024-03-23T02:34:52;14.98;;;6.05;;
20533;SDS011;12929;56.822;26.056;2024-03-23T02:37:18;19.17;;;5.95;;
20533;SDS011;12929;56.822;26.056;2024-03-23T02:39:45;18.15;;;6.13;;
20533;SDS011;12929;56.822;26.056;2024-03-23T02:42:11;22.08;;;6.13;;
20533;SDS011;12929;56.822;26.056;2024-03-23T02:44:37;18.08;;;5.65;;
20533;SDS011;12929;56.822;26.056;2024-03-23T02:47:04;18.95;;;5.32;;
20533;SDS011;12929;56.822;26.056;2024-03-23T02:49:31;19.95;;;5.47;;
20533;SDS011;12929;56.822;26.056;2024-03-23T02:51:57;22.92;;;7.40;;
20533;SDS011;12929;56.822;26.056;2024-03-23T02:54:24;12.90;;;4.97;;
20533;SDS011;12929;56.822;26.056;2024-03-23T02:56:50;17.33;;;5.30;;
20533;SDS011;12929;56.822;26.056;2024-03-23T02:59:17;19.67;;;5.75;;
20533;SDS011;12929;56.822;26.056;2024-03-23T03:01:43;19.88;;;6.53;;
20533;SDS011;12929;56.822;26.056;2024-03-23T03:04:10;17.02;;;6.05;;
20533;SDS011;12929;56.822;26.056;2024-03-23T03:06:36;13.35;;;6.07;;
20533;SDS011;12929;56.822;26.056;2024-03-23T03:09:03;23.58;;;8.15;;
20533;SDS011;12929;56.822;26.056;2024-03-23T03:11:30;18.38;;;6.15;;
20533;SDS011;12929;56.822;26.056;2024-03-23T03:13:56;25.67;;;6.28;;
20533;SDS011;12929;56.822;26.056;2024-03-23T03:16:26;16.58;;;6.00;;
20533;SDS011;12929;56.822;26.056;2024-03-23T03:18:52;21.42;;;6.35;;
20533;SDS011;12929;56.822;26.056;2024-03-23T03:21:19;21.08;;;6.35;;
20533;SDS011;12929;56.822;26.056;2024-03-23T03:23:45;17.92;;;6.90;;
20533;SDS011;12929;56.822;26.056;2024-03-23T03:26:16;21.40;;;6.32;;
20533;SDS011;12929;56.822;26.056;2024-03-23T03:28:43;22.60;;;6.10;;
20533;SDS011;12929;56.822;26.056;2024-03-23T03:31:15;19.80;;;6.28;;
20533;SDS011;12929;56.822;26.056;2024-03-23T03:33:42;23.30;;;6.28;;
20533;SDS011;12929;56.822;26.056;2024-03-23T03:36:08;25.38;;;6.55;;
20533;SDS011;12929;56.822;26.056;2024-03-23T03:38:35;25.80;;;7.32;;
20533;SDS011;12929;56.822;26.056;2024-03-23T03:41:02;21.33;;;7.03;;
20533;SDS011;12929;56.822;26.056;2024-03-23T03:43:29;22.00;;;6.65;;
20533;SDS011;12929;56.822;26.056;2024-03-23T03:45:56;26.25;;;8.60;;
20533;SDS011;12929;56.822;26.056;2024-03-23T03:48:26;21.40;;;6.90;;
20533;SDS011;12929;56.822;26.056;2024-03-23T03:50:52;18.13;;;5.93;;
20533;SDS011;12929;56.822;26.056;2024-03-23T03:53:19;19.98;;;6.70;;
20533;SDS011;12929;56.822;26.056;2024-03-23T03:55:47;19.08;;;5.95;;
20533;SDS011;12929;56.822;26.056;2024-03-23T03:58:13;19.58;;;6.78;;
20533;SDS011;12929;56.822;26.056;2024-03-23T04:00:40;22.85;;;6.40;;
20533;SDS011;12929;56.822;26.056;2024-03-23T04:03:06;23.92;;;8.00;;
20533;SDS011;12929;56.822;26.056;2024-03-23T04:05:33;19.77;;;6.40;;
20533;SDS011;12929;56.822;26.056;2024-03-23T04:07:59;21.48;;;6.90;;
20533;SDS011;12929;56.822;26.056;2024-03-23T04:10:26;24.60;;;6.40;;
20533;SDS011;12929;56.822;26.056;2024-03-23T04:12:52;24.17;;;8.07;;
20533;SDS011;12929;56.822;26.056;2024-03-23T04:15:20;24.67;;;7.47;;
20533;SDS011;12929;56.822;26.056;2024-03-23T04:17:46;24.95;;;7.07;;
20533;SDS011;12929;56.822;26.056;2024-03-23T04:20:13;22.40;;;7.30;;
20533;SDS011;12929;56.822;26.056;2024-03-23T04:22:45;19.63;;;6.85;;
20533;SDS011;12929;56.822;26.056;2024-03-23T04:25:12;24.30;;;7.55;;
20533;SDS011;12929;56.822;26.056;2024-03-23T04:27:40;23.42;;;8.20;;
20533;SDS011;12929;56.822;26.056;2024-03-23T04:30:08;22.88;;;6.65;;
20533;SDS011;12929;56.822;26.056;2024-03-23T04:32:37;27.13;;;8.25;;
20533;SDS011;12929;56.822;26.056;2024-03-23T04:35:04;24.63;;;6.82;;
20533;SDS011;12929;56.822;26.056;2024-03-23T04:37:40;24.23;;;6.70;;
20533;SDS011;12929;56.822;26.056;2024-03-23T04:40:07;26.92;;;7.78;;
20533;SDS011;12929;56.822;26.056;2024-03-23T04:42:33;24.08;;;7.07;;
20533;SDS011;12929;56.822;26.056;2024-03-23T04:45:00;24.65;;;7.25;;
20533;SDS011;12929;56.822;26.056;2024-03-23T04:47:27;24.27;;;7.40;;
20533;SDS011;12929;56.822;26.056;2024-03-23T04:49:54;24.92;;;7.60;;
20533;SDS011;12929;56.822;26.056;2024-03-23T04:52:21;24.77;;;8.07;;
20533;SDS011;12929;56.822;26.056;2024-03-23T04:54:47;23.73;;;7.50;;
20533;SDS011;12929;56.822;26.056;2024-03-23T04:57:14;24.80;;;7.10;;
20533;SDS011;12929;56.822;26.056;2024-03-23T04:59:45;26.15;;;7.28;;
20533;SDS011;12929;56.822;26.056;2024-03-23T05:02:13;19.83;;;6.22;;
20533;SDS011;12929;56.822;26.056;2024-03-23T05:04:40;24.90;;;7.30;;
20533;SDS011;12929;56.822;26.056;2024-03-23T05:07:08;24.00;;;7.88;;
20533;SDS011;12929;56.822;26.056;2024-03-23T05:09:34;21.63;;;7.38;;
20533;SDS011;12929;56.822;26.056;2024-03-23T05:12:01;22.10;;;6.70;;
20533;SDS011;12929;56.822;26.056;2024-03-23T05:14:28;23.13;;;6.38;;
20533;SDS011;12929;56.822;26.056;2024-03-23T05:16:54;21.75;;;6.63;;
20533;SDS011;12929;56.822;26.056;2024-03-23T05:19:21;29.35;;;7.55;;
20533;SDS011;12929;56.822;26.056;2024-03-23T05:21:48;27.27;;;6.85;;
20533;SDS011;12929;56.822;26.056;2024-03-23T05:24:15;24.95;;;6.75;;
20533;SDS011;12929;56.822;26.056;2024-03-23T05:26:42;20.48;;;6.43;;
20533;SDS011;12929;56.822;26.056;2024-03-23T05:29:08;25.88;;;7.22;;
20533;SDS011;12929;56.822;26.056;2024-03-23T05:31:39;22.08;;;6.55;;
20533;SDS011;12929;56.822;26.056;2024-03-23T05:34:07;24.08;;;6.05;;
20533;SDS011;12929;56.822;26.056;2024-03-23T05:36:35;23.70;;;6.25;;
20533;SDS011;12929;56.822;26.056;2024-03-23T05:39:02;16.13;;;6.70;;
20533;SDS011;12929;56.822;26.056;2024-03-23T05:41:29;17.88;;;6.80;;
20533;SDS011;12929;56.822;26.056;2024-03-23T05:43:55;21.45;;;6.43;;
20533;SDS011;12929;56.822;26.056;2024-03-23T05:46:21;28.08;;;8.05;;
20533;SDS011;12929;56.822;26.056;2024-03-23T05:48:48;21.35;;;6.97;;
20533;SDS011;12929;56.822;26.056;2024-03-23T05:51:15;19.75;;;5.53;;
20533;SDS011;12929;56.822;26.056;2024-03-23T05:53:42;25.45;;;7.20;;
20533;SDS011;12929;56.822;26.056;2024-03-23T05:56:09;22.58;;;6.35;;
20533;SDS011;12929;56.822;26.056;2024-03-23T05:58:35;20.15;;;6.03;;
20533;SDS011;12929;56.822;26.056;2024-03-23T06:01:02;29.58;;;6.20;;
20533;SDS011;12929;56.822;26.056;2024-03-23T06:03:29;19.45;;;5.43;;
20533;SDS011;12929;56.822;26.056;2024-03-23T06:05:56;21.65;;;5.40;;
20533;SDS011;12929;56.822;26.056;2024-03-23T06:08:23;21.33;;;4.25;;
20533;SDS011;12929;56.822;26.056;2024-03-23T06:10:49;23.23;;;4.30;;
20533;SDS011;12929;56.822;26.056;2024-03-23T06:13:16;18.63;;;4.80;;
20533;SDS011;12929;56.822;26.056;2024-03-23T06:15:43;18.25;;;4.68;;
20533;SDS011;12929;56.822;26.056;2024-03-23T06:18:12;17.63;;;4.68;;
20533;SDS011;12929;56.822;26.056;2024-03-23T06:20:38;19.13;;;4.32;;
20533;SDS011;12929;56.822;26.056;2024-03-23T06:23:05;16.90;;;4.13;;
20533;SDS011;12929;56.822;26.056;2024-03-23T06:25:31;26.20;;;5.15;;
20533;SDS011;12929;56.822;26.056;2024-03-23T06:27:58;15.27;;;4.07;;
20533;SDS011;12929;56.822;26.056;2024-03-23T06:30:25;18.85;;;4.00;;
20533;SDS011;12929;56.822;26.056;2024-03-23T06:32:52;20.90;;;5.18;;
20533;SDS011;12929;56.822;26.056;2024-03-23T06:35:18;18.02;;;5.07;;
20533;SDS011;12929;56.822;26.056;2024-03-23T06:37:45;16.30;;;4.47;;
20533;SDS011;12929;56.822;26.056;2024-03-23T06:40:11;15.55;;;4.55;;
20533;SDS011;12929;56.822;26.056;2024-03-23T06:42:38;18.88;;;4.50;;
20533;SDS011;12929;56.822;26.056;2024-03-23T06:45:05;19.77;;;4.63;;
20533;SDS011;12929;56.822;26.056;2024-03-23T06:47:32;23.83;;;4.43;;
20533;SDS011;12929;56.822;26.056;2024-03-23T06:50:02;25.48;;;4.55;;
20533;SDS011;12929;56.822;26.056;2024-03-23T06:52:29;16.08;;;4.07;;
20533;SDS011;12929;56.822;26.056;2024-03-23T06:54:56;22.13;;;4.30;;
20533;SDS011;12929;56.822;26.056;2024-03-23T06:57:23;23.80;;;3.78;;
20533;SDS011;12929;56.822;26.056;2024-03-23T06:59:50;21.42;;;3.80;;
20533;SDS011;12929;56.822;26.056;2024-03-23T07:02:16;18.65;;;3.80;;
20533;SDS011;12929;56.822;26.056;2024-03-23T07:04:43;21.30;;;3.53;;
20533;SDS011;12929;56.822;26.056;2024-03-23T07:07:09;24.00;;;4.35;;
20533;SDS011;12929;56.822;26.056;2024-03-23T07:09:36;22.88;;;4.30;;
20533;SDS011;12929;56.822;26.056;2024-03-23T07:12:03;18.58;;;4.18;;
20533;SDS011;12929;56.822;26.056;2024-03-23T07:14:30;20.67;;;3.08;;
20533;SDS011;12929;56.822;26.056;2024-03-23T07:16:56;20.23;;;3.53;;
20533;SDS011;12929;56.822;26.056;2024-03-23T07:19:23;21.52;;;3.75;;
20533;SDS011;12929;56.822;26.056;2024-03-23T07:21:50;19.08;;;3.78;;
20533;SDS011;12929;56.822;26.056;2024-03-23T07:24:16;20.05;;;4.00;;
20533;SDS011;12929;56.822;26.056;2024-03-23T07:26:43;20.70;;;4.20;;
20533;SDS011;12929;56.822;26.056;2024-03-23T07:29:09;19.77;;;3.90;;
20533;SDS011;12929;56.822;26.056;2024-03-23T07:31:36;22.55;;;3.55;;
20533;SDS011;12929;56.822;26.056;2024-03-23T07:34:02;15.90;;;3.60;;
20533;SDS011;12929;56.822;26.056;2024-03-23T07:36:29;13.55;;;2.75;;
20533;SDS011;12929;56.822;26.056;2024-03-23T07:38:55;18.15;;;3.33;;
20533;SDS011;12929;56.822;26.056;2024-03-23T07:41:22;15.32;;;2.67;;
20533;SDS011;12929;56.822;26.056;2024-03-23T07:43:48;15.00;;;2.80;;
20533;SDS011;12929;56.822;26.056;2024-03-23T07:46:16;19.27;;;3.47;;
20533;SDS011;12929;56.822;26.056;2024-03-23T07:48:42;18.83;;;3.38;;
20533;SDS011;12929;56.822;26.056;2024-03-23T07:51:10;19.52;;;2.88;;
20533;SDS011;12929;56.822;26.056;2024-03-23T07:53:44;16.02;;;2.63;;
20533;SDS011;12929;56.822;26.056;2024-03-23T07:56:12;18.85;;;4.65;;
20533;SDS011;12929;56.822;26.056;2024-03-23T07:58:41;20.60;;;3.67;;
20533;SDS011;12929;56.822;26.056;2024-03-23T08:03:35;15.13;;;3.35;;
20533;SDS011;12929;56.822;26.056;2024-03-23T08:08:36;16.73;;;3.63;;
20533;SDS011;12929;56.822;26.056;2024-03-23T08:11:02;17.50;;;4.40;;
20533;SDS011;12929;56.822;26.056;2024-03-23T08:13:30;13.05;;;3.25;;
20533;SDS011;12929;56.822;26.056;2024-03-23T08:15:58;17.42;;;3.58;;
20533;SDS011;12929;56.822;26.056;2024-03-23T08:18:29;21.80;;;3.20;;
20533;SDS011;12929;56.822;26.056;2024-03-23T08:21:00;17.23;;;3.75;;
20533;SDS011;12929;56.822;26.056;2024-03-23T08:23:28;14.45;;;3.50;;
20533;SDS011;12929;56.822;26.056;2024-03-23T08:26:02;14.63;;;2.72;;
20533;SDS011;12929;56.822;26.056;2024-03-23T08:28:30;17.70;;;3.97;;
20533;SDS011;12929;56.822;26.056;2024-03-23T08:30:56;16.95;;;3.08;;
20533;SDS011;12929;56.822;26.056;2024-03-23T08:33:26;17.67;;;3.88;;
20533;SDS011;12929;56.822;26.056;2024-03-23T08:35:56;15.65;;;3.80;;
20533;SDS011;12929;56.822;26.056;2024-03-23T08:38:23;19.00;;;4.28;;
20533;SDS011;12929;56.822;26.056;2024-03-23T08:40:56;13.45;;;3.17;;
20533;SDS011;12929;56.822;26.056;2024-03-23T08:43:28;18.17;;;3.67;;
20533;SDS011;12929;56.822;26.056;2024-03-23T08:46:05;15.70;;;3.40;;
20533;SDS011;12929;56.822;26.056;2024-03-23T08:48:37;12.63;;;3.42;;
20533;SDS011;12929;56.822;26.056;2024-03-23T08:51:08;11.90;;;2.88;;
20533;SDS011;12929;56.822;26.056;2024-03-23T08:53:35;14.95;;;3.15;;
20533;SDS011;12929;56.822;26.056;2024-03-23T08:56:02;16.00;;;2.55;;
20533;SDS011;12929;56.822;26.056;2024-03-23T08:58:30;14.65;;;3.15;;
20533;SDS011;12929;56.822;26.056;2024-03-23T09:01:02;15.02;;;3.38;;
20533;SDS011;12929;56.822;26.056;2024-03-23T09:03:30;17.70;;;3.35;;
20533;SDS011;12929;56.822;26.056;2024-03-23T09:05:57;15.60;;;2.95;;
20533;SDS011;12929;56.822;26.056;2024-03-23T09:08:24;15.20;;;3.22;;
20533;SDS011;12929;56.822;26.056;2024-03-23T09:10:51;12.98;;;2.97;;
20533;SDS011;12929;56.822;26.056;2024-03-23T09:13:18;15.55;;;2.67;;
20533;SDS011;12929;56.822;26.056;2024-03-23T09:15:46;17.30;;;3.67;;
20533;SDS011;12929;56.822;26.056;2024-03-23T09:18:13;18.65;;;3.03;;
20533;SDS011;12929;56.822;26.056;2024-03-23T09:20:40;15.20;;;2.70;;
20533;SDS011;12929;56.822;26.056;2024-03-23T09:23:06;9.75;;;2.55;;
20533;SDS011;12929;56.822;26.056;2024-03-23T09:25:36;13.82;;;3.25;;
20533;SDS011;12929;56.822;26.056;2024-03-23T09:28:06;19.17;;;3.05;;
20533;SDS011;12929;56.822;26.056;2024-03-23T09:30:36;16.30;;;3.33;;
20533;SDS011;12929;56.822;26.056;2024-03-23T09:33:09;18.65;;;3.45;;
20533;SDS011;12929;56.822;26.056;2024-03-23T09:35:37;12.98;;;3.03;;
20533;SDS011;12929;56.822;26.056;2024-03-23T09:38:08;15.43;;;3.00;;
20533;SDS011;12929;56.822;26.056;2024-03-23T09:40:35;16.00;;;2.97;;
20533;SDS011;12929;56.822;26.056;2024-03-23T09:43:07;13.77;;;3.13;;
20533;SDS011;12929;56.822;26.056;2024-03-23T09:45:35;16.70;;;3.22;;
20533;SDS011;12929;56.822;26.056;2024-03-23T09:48:09;13.52;;;3.25;;
20533;SDS011;12929;56.822;26.056;2024-03-23T09:50:42;17.13;;;3.47;;
20533;SDS011;12929;56.822;26.056;2024-03-23T09:53:10;15.43;;;2.90;;
20533;SDS011;12929;56.822;26.056;2024-03-23T09:55:41;15.10;;;3.17;;
20533;SDS011;12929;56.822;26.056;2024-03-23T09:58:13;16.70;;;2.92;;
20533;SDS011;12929;56.822;26.056;2024-03-23T10:00:41;18.17;;;3.38;;
20533;SDS011;12929;56.822;26.056;2024-03-23T10:03:07;14.48;;;2.95;;
20533;SDS011;12929;56.822;26.056;2024-03-23T10:05:37;12.52;;;2.78;;
20533;SDS011;12929;56.822;26.056;2024-03-23T10:10:42;13.10;;;2.58;;
20533;SDS011;12929;56.822;26.056;2024-03-23T10:13:09;10.10;;;2.60;;
20533;SDS011;12929;56.822;26.056;2024-03-23T10:15:39;8.18;;;2.30;;
20533;SDS011;12929;56.822;26.056;2024-03-23T10:20:47;14.73;;;2.30;;
20533;SDS011;12929;56.822;26.056;2024-03-23T10:23:16;11.43;;;2.47;;
20533;SDS011;12929;56.822;26.056;2024-03-23T10:25:43;12.68;;;2.42;;
20533;SDS011;12929;56.822;26.056;2024-03-23T10:28:11;15.25;;;2.67;;
20533;SDS011;12929;56.822;26.056;2024-03-23T10:30:38;11.82;;;2.42;;
20533;SDS011;12929;56.822;26.056;2024-03-23T10:33:08;12.25;;;2.10;;
20533;SDS011;12929;56.822;26.056;2024-03-23T10:35:36;12.68;;;2.22;;
20533;SDS011;12929;56.822;26.056;2024-03-23T10:38:04;12.73;;;2.70;;
20533;SDS011;12929;56.822;26.056;2024-03-23T10:40:35;13.25;;;2.45;;
20533;SDS011;12929;56.822;26.056;2024-03-23T10:43:05;9.38;;;1.85;;
20533;SDS011;12929;56.822;26.056;2024-03-23T10:45:34;9.90;;;1.92;;
20533;SDS011;12929;56.822;26.056;2024-03-23T10:48:01;12.30;;;2.38;;
20533;SDS011;12929;56.822;26.056;2024-03-23T10:50:28;7.43;;;2.03;;
20533;SDS011;12929;56.822;26.056;2024-03-23T10:52:55;11.18;;;2.13;;
20533;SDS011;12929;56.822;26.056;2024-03-23T10:55:25;10.20;;;2.03;;
20533;SDS011;12929;56.822;26.056;2024-03-23T10:57:53;11.75;;;1.85;;
20533;SDS011;12929;56.822;26.056;2024-03-23T11:00:21;11.45;;;2.13;;
20533;SDS011;12929;56.822;26.056;2024-03-23T11:02:49;8.48;;;2.30;;
20533;SDS011;12929;56.822;26.056;2024-03-23T11:05:28;8.20;;;2.08;;
20533;SDS011;12929;56.822;26.056;2024-03-23T11:07:56;10.35;;;1.92;;
20533;SDS011;12929;56.822;26.056;2024-03-23T11:10:26;10.02;;;2.33;;
20533;SDS011;12929;56.822;26.056;2024-03-23T11:12:58;11.48;;;2.22;;
20533;SDS011;12929;56.822;26.056;2024-03-23T11:15:48;13.27;;;2.05;;
20533;SDS011;12929;56.822;26.056;2024-03-23T11:18:20;13.43;;;2.50;;
20533;SDS011;12929;56.822;26.056;2024-03-23T11:20:47;9.80;;;2.10;;
20533;SDS011;12929;56.822;26.056;2024-03-23T11:23:26;10.90;;;1.90;;
20533;SDS011;12929;56.822;26.056;2024-03-23T11:25:54;8.32;;;2.28;;
20533;SDS011;12929;56.822;26.056;2024-03-23T11:28:20;12.93;;;1.63;;
20533;SDS011;12929;56.822;26.056;2024-03-23T11:30:47;11.00;;;2.33;;
20533;SDS011;12929;56.822;26.056;2024-03-23T11:33:14;11.80;;;2.33;;
20533;SDS011;12929;56.822;26.056;2024-03-23T11:35:41;11.77;;;1.88;;
20533;SDS011;12929;56.822;26.056;2024-03-23T11:40:38;13.48;;;2.17;;
20533;SDS011;12929;56.822;26.056;2024-03-23T11:43:12;14.65;;;2.83;;
20533;SDS011;12929;56.822;26.056;2024-03-23T11:45:44;8.90;;;2.45;;
20533;SDS011;12929;56.822;26.056;2024-03-23T11:48:13;10.35;;;2.05;;
20533;SDS011;12929;56.822;26.056;2024-03-23T11:50:44;6.70;;;1.85;;
20533;SDS011;12929;56.822;26.056;2024-03-23T11:55:45;8.43;;;1.88;;
20533;SDS011;12929;56.822;26.056;2024-03-23T11:58:19;9.35;;;2.10;;
20533;SDS011;12929;56.822;26.056;2024-03-23T12:03:23;6.65;;;1.70;;
20533;SDS011;12929;56.822;26.056;2024-03-23T12:05:54;5.45;;;1.48;;
20533;SDS011;12929;56.822;26.056;2024-03-23T12:11:05;11.07;;;2.10;;
20533;SDS011;12929;56.822;26.056;2024-03-23T12:13:39;14.07;;;1.77;;
20533;SDS011;12929;56.822;26.056;2024-03-23T12:16:09;12.00;;;2.03;;
20533;SDS011;12929;56.822;26.056;2024-03-23T12:18:37;10.57;;;1.60;;
20533;SDS011;12929;56.822;26.056;2024-03-23T12:21:04;9.10;;;1.77;;
20533;SDS011;12929;56.822;26.056;2024-03-23T12:23:30;7.72;;;1.83;;
20533;SDS011;12929;56.822;26.056;2024-03-23T12:25:58;9.73;;;2.00;;
20533;SDS011;12929;56.822;26.056;2024-03-23T12:28:24;9.60;;;1.98;;
20533;SDS011;12929;56.822;26.056;2024-03-23T12:30:51;7.85;;;1.80;;
20533;SDS011;12929;56.822;26.056;2024-03-23T12:33:20;7.93;;;1.80;;
20533;SDS011;12929;56.822;26.056;2024-03-23T12:35:50;4.82;;;1.48;;
20533;SDS011;12929;56.822;26.056;2024-03-23T12:38:17;6.07;;;1.50;;
20533;SDS011;12929;56.822;26.056;2024-03-23T12:40:47;12.07;;;1.63;;
20533;SDS011;12929;56.822;26.056;2024-03-23T12:43:14;10.73;;;2.03;;
20533;SDS011;12929;56.822;26.056;2024-03-23T12:45:45;7.97;;;2.20;;
20533;SDS011;12929;56.822;26.056;2024-03-23T12:48:12;9.30;;;1.67;;
20533;SDS011;12929;56.822;26.056;2024-03-23T12:50:39;10.48;;;1.70;;
20533;SDS011;12929;56.822;26.056;2024-03-23T12:53:06;10.63;;;1.83;;
20533;SDS011;12929;56.822;26.056;2024-03-23T12:55:34;12.05;;;2.17;;
20533;SDS011;12929;56.822;26.056;2024-03-23T12:58:01;9.13;;;1.77;;
20533;SDS011;12929;56.822;26.056;2024-03-23T13:00:28;10.88;;;2.08;;
20533;SDS011;12929;56.822;26.056;2024-03-23T13:02:55;10.95;;;1.98;;
20533;SDS011;12929;56.822;26.056;2024-03-23T13:05:21;8.43;;;1.83;;
20533;SDS011;12929;56.822;26.056;2024-03-23T13:07:48;10.48;;;1.95;;
20533;SDS011;12929;56.822;26.056;2024-03-23T13:10:14;6.05;;;1.90;;
20533;SDS011;12929;56.822;26.056;2024-03-23T13:12:41;9.85;;;1.73;;
20533;SDS011;12929;56.822;26.056;2024-03-23T13:15:08;7.60;;;1.83;;
20533;SDS011;12929;56.822;26.056;2024-03-23T13:17:35;7.90;;;1.80;;
20533;SDS011;12929;56.822;26.056;2024-03-23T13:20:02;15.40;;;2.50;;
20533;SDS011;12929;56.822;26.056;2024-03-23T13:22:29;11.50;;;1.85;;
20533;SDS011;12929;56.822;26.056;2024-03-23T13:24:56;5.82;;;2.03;;
20533;SDS011;12929;56.822;26.056;2024-03-23T13:27:22;12.20;;;1.90;;
20533;SDS011;12929;56.822;26.056;2024-03-23T13:29:49;8.13;;;1.92;;
20533;SDS011;12929;56.822;26.056;2024-03-23T13:32:16;8.05;;;1.98;;
20533;SDS011;12929;56.822;26.056;2024-03-23T13:34:42;10.27;;;2.03;;
20533;SDS011;12929;56.822;26.056;2024-03-23T13:37:09;8.68;;;2.17;;
20533;SDS011;12929;56.822;26.056;2024-03-23T13:39:35;9.73;;;2.08;;
20533;SDS011;12929;56.822;26.056;2024-03-23T13:42:02;9.30;;;2.30;;
20533;SDS011;12929;56.822;26.056;2024-03-23T13:44:29;10.05;;;2.17;;
20533;SDS011;12929;56.822;26.056;2024-03-23T13:46:55;10.27;;;1.95;;
20533;SDS011;12929;56.822;26.056;2024-03-23T13:49:30;9.75;;;1.90;;
20533;SDS011;12929;56.822;26.056;2024-03-23T13:51:58;7.22;;;1.80;;
20533;SDS011;12929;56.822;26.056;2024-03-23T13:54:25;9.13;;;1.98;;
20533;SDS011;12929;56.822;26.056;2024-03-23T13:56:53;6.28;;;1.63;;
20533;SDS011;12929;56.822;26.056;2024-03-23T13:59:20;7.93;;;2.05;;
20533;SDS011;12929;56.822;26.056;2024-03-23T14:01:48;8.32;;;1.95;;
20533;SDS011;12929;56.822;26.056;2024-03-23T14:04:16;7.07;;;2.00;;
20533;SDS011;12929;56.822;26.056;2024-03-23T14:06:45;12.23;;;2.80;;
20533;SDS011;12929;56.822;26.056;2024-03-23T14:09:12;9.90;;;2.60;;
20533;SDS011;12929;56.822;26.056;2024-03-23T14:11:40;8.73;;;2.30;;
20533;SDS011;12929;56.822;26.056;2024-03-23T14:14:09;11.18;;;2.35;;
20533;SDS011;12929;56.822;26.056;2024-03-23T14:16:36;7.88;;;2.60;;
20533;SDS011;12929;56.822;26.056;2024-03-23T14:19:02;13.00;;;2.67;;
20533;SDS011;12929;56.822;26.056;2024-03-23T14:21:31;7.97;;;2.50;;
20533;SDS011;12929;56.822;26.056;2024-03-23T14:23:58;11.18;;;2.63;;
20533;SDS011;12929;56.822;26.056;2024-03-23T14:26:24;8.65;;;2.58;;
20533;SDS011;12929;56.822;26.056;2024-03-23T14:28:51;16.20;;;3.13;;
20533;SDS011;12929;56.822;26.056;2024-03-23T14:31:17;9.43;;;2.42;;
20533;SDS011;12929;56.822;26.056;2024-03-23T14:33:44;9.65;;;2.55;;
20533;SDS011;12929;56.822;26.056;2024-03-23T14:36:13;9.45;;;2.28;;
20533;SDS011;12929;56.822;26.056;2024-03-23T14:38:40;13.00;;;2.90;;
20533;SDS011;12929;56.822;26.056;2024-03-23T14:41:06;12.95;;;2.45;;
20533;SDS011;12929;56.822;26.056;2024-03-23T14:43:33;8.32;;;2.30;;
20533;SDS011;12929;56.822;26.056;2024-03-23T14:46:06;9.88;;;2.35;;
20533;SDS011;12929;56.822;26.056;2024-03-23T14:48:40;12.10;;;2.35;;
20533;SDS011;12929;56.822;26.056;2024-03-23T14:51:08;10.68;;;2.35;;
20533;SDS011;12929;56.822;26.056;2024-03-23T14:53:39;10.45;;;2.60;;
20533;SDS011;12929;56.822;26.056;2024-03-23T14:56:07;7.32;;;1.92;;
20533;SDS011;12929;56.822;26.056;2024-03-23T14:58:36;10.23;;;2.90;;
20533;SDS011;12929;56.822;26.056;2024-03-23T15:01:02;9.57;;;2.47;;
20533;SDS011;12929;56.822;26.056;2024-03-23T15:03:30;8.05;;;2.58;;
20533;SDS011;12929;56.822;26.056;2024-03-23T15:05:57;8.25;;;2.83;;
20533;SDS011;12929;56.822;26.056;2024-03-23T15:08:25;10.18;;;2.78;;
20533;SDS011;12929;56.822;26.056;2024-03-23T15:10:53;14.05;;;2.75;;
20533;SDS011;12929;56.822;26.056;2024-03-23T15:13:21;9.88;;;2.92;;
20533;SDS011;12929;56.822;26.056;2024-03-23T15:15:48;9.40;;;2.42;;
20533;SDS011;12929;56.822;26.056;2024-03-23T15:18:17;15.15;;;3.17;;
20533;SDS011;12929;56.822;26.056;2024-03-23T15:20:55;10.38;;;2.78;;
20533;SDS011;12929;56.822;26.056;2024-03-23T15:23:23;10.85;;;2.85;;
20533;SDS011;12929;56.822;26.056;2024-03-23T15:25:56;8.10;;;2.88;;
20533;SDS011;12929;56.822;26.056;2024-03-23T15:28:23;11.80;;;2.20;;
20533;SDS011;12929;56.822;26.056;2024-03-23T15:31:07;10.25;;;2.58;;
20533;SDS011;12929;56.822;26.056;2024-03-23T15:33:37;8.55;;;2.25;;
20533;SDS011;12929;56.822;26.056;2024-03-23T15:36:05;9.85;;;2.25;;
20533;SDS011;12929;56.822;26.056;2024-03-23T15:38:32;8.88;;;2.75;;
20533;SDS011;12929;56.822;26.056;2024-03-23T15:40:58;7.78;;;2.25;;